Time;durP1;ratioP1;P1;durP2;ratioP2;P2;SDS_P1;SDS_P2;PMS_P1;PMS_P2;Temp;Humidity;BMP_temperature;BMP_pressure;BME280_temperature;BME280_humidity;BME280_pressure;Samples;Min_cycle;Max_cycle;Signal;HPM_P1;HPM_P2
2023/01/25 00:00:46;;;;;;;91.47;49.95;;;;;;;0.37;100.00;103565.34;5249606;28;20532;-73
2023/01/25 00:03:18;;;;;;;93.55;52.00;;;;;;;0.35;100.00;103567.06;5249683;28;20494;-73
2023/01/25 00:05:58;;;;;;;88.75;49.83;;;;;;;0.33;100.00;103558.31;5239499;28;20029;-73
2023/01/25 00:08:30;;;;;;;90.55;49.53;;;;;;;0.27;100.00;103555.59;5253892;28;20144;-73
2023/01/25 00:11:01;;;;;;;90.28;48.80;;;;;;;0.29;100.00;103553.84;5256554;28;20100;-72
2023/01/25 00:13:32;;;;;;;93.60;51.28;;;;;;;0.33;100.00;103547.81;5242361;28;20044;-73
2023/01/25 00:16:04;;;;;;;88.53;48.92;;;;;;;0.28;100.00;103555.63;5243669;28;20298;-73
2023/01/25 00:18:35;;;;;;;90.78;49.80;;;;;;;0.19;100.00;103559.03;5238864;28;20029;-73
2023/01/25 00:21:21;;;;;;;90.90;50.08;;;;;;;0.23;100.00;103546.84;5249877;28;20053;-72
2023/01/25 00:23:53;;;;;;;99.03;50.78;;;;;;;0.27;100.00;103552.97;5250889;28;20048;-73
2023/01/25 00:26:24;;;;;;;96.93;50.63;;;;;;;0.36;100.00;103548.69;5250578;28;20559;-72
2023/01/25 00:28:56;;;;;;;96.25;52.65;;;;;;;0.21;100.00;103556.41;5247127;28;20028;-73
2023/01/25 00:31:33;;;;;;;96.32;52.75;;;;;;;0.21;100.00;103556.41;5245465;28;20158;-72
2023/01/25 00:34:23;;;;;;;96.40;50.53;;;;;;;0.23;100.00;103553.81;5249057;28;20036;-73
2023/01/25 00:36:56;;;;;;;94.68;49.88;;;;;;;0.14;100.00;103555.47;5244499;28;20047;-73
2023/01/25 00:39:28;;;;;;;95.45;51.25;;;;;;;0.22;100.00;103549.44;5248584;28;20108;-73
2023/01/25 00:41:59;;;;;;;96.65;51.25;;;;;;;0.22;100.00;103542.44;5248379;28;20303;-73
2023/01/25 00:44:30;;;;;;;90.15;48.72;;;;;;;0.18;100.00;103538.00;5248679;28;20553;-72
2023/01/25 00:47:03;;;;;;;94.85;51.58;;;;;;;0.22;100.00;103544.19;5248743;28;20032;-73
2023/01/25 00:49:36;;;;;;;94.55;51.13;;;;;;;0.24;100.00;103539.81;5248354;28;20064;-73
2023/01/25 00:52:08;;;;;;;98.70;52.88;;;;;;;0.18;100.00;103543.25;5248918;28;20107;-73
2023/01/25 00:54:40;;;;;;;98.97;51.55;;;;;;;0.27;100.00;103537.22;5249518;28;20570;-72
2023/01/25 00:57:11;;;;;;;100.13;52.78;;;;;;;0.23;100.00;103545.94;5245154;28;20355;-73
2023/01/25 00:59:44;;;;;;;98.65;51.67;;;;;;;0.14;100.00;103541.47;5248175;28;20055;-73
2023/01/25 01:02:15;;;;;;;97.63;52.03;;;;;;;0.11;100.00;103538.81;5245666;28;20040;-73
2023/01/25 01:04:46;;;;;;;100.03;52.70;;;;;;;0.12;100.00;103535.34;5248097;28;20490;-72
2023/01/25 01:07:18;;;;;;;100.22;52.22;;;;;;;0.17;100.00;103534.53;5246924;28;20545;-73
2023/01/25 01:09:49;;;;;;;98.00;52.38;;;;;;;0.18;100.00;103528.38;5249551;28;20032;-73
2023/01/25 01:12:20;;;;;;;102.25;54.80;;;;;;;0.22;100.00;103525.81;5247607;28;21693;-72
2023/01/25 01:14:51;;;;;;;102.75;52.05;;;;;;;0.10;100.00;103521.31;5244422;28;20378;-73
2023/01/25 01:17:23;;;;;;;100.25;51.60;;;;;;;0.09;100.00;103523.03;5242999;28;20041;-73
2023/01/25 01:19:54;;;;;;;99.63;52.88;;;;;;;0.05;100.00;103531.75;5245327;28;20520;-73
2023/01/25 01:22:25;;;;;;;104.53;53.53;;;;;;;0.03;100.00;103535.22;5242596;28;20064;-72
2023/01/25 01:24:57;;;;;;;104.35;55.00;;;;;;;0.14;100.00;103525.72;5245586;28;20027;-73
2023/01/25 01:27:28;;;;;;;105.75;55.63;;;;;;;0.09;100.00;103528.28;5246169;28;20438;-73
2023/01/25 01:29:59;;;;;;;106.35;55.45;;;;;;;0.22;100.00;103521.41;5244687;28;20833;-72
2023/01/25 01:32:30;;;;;;;106.30;55.28;;;;;;;0.21;100.00;103534.53;5245517;28;20112;-73
2023/01/25 01:35:02;;;;;;;103.88;54.20;;;;;;;0.12;100.00;103524.84;5247890;28;20196;-73
2023/01/25 01:37:33;;;;;;;102.78;53.22;;;;;;;0.14;100.00;103521.34;5240236;28;20035;-73
2023/01/25 01:40:05;;;;;;;100.75;53.38;;;;;;;0.25;100.00;103523.19;5244091;28;20085;-73
2023/01/25 01:42:58;;;;;;;103.85;54.42;;;;;;;0.21;100.00;103526.66;5246726;28;20136;-73
2023/01/25 01:45:42;;;;;;;107.35;55.28;;;;;;;0.13;100.00;103531.81;5247538;28;20535;-72
2023/01/25 01:48:19;;;;;;;100.32;51.25;;;;;;;0.05;100.00;103526.50;5243818;28;20107;-73
2023/01/25 01:50:53;;;;;;;102.45;53.55;;;;;;;-0.01;100.00;103527.31;5239954;28;21336;-73
2023/01/25 01:53:26;;;;;;;107.85;54.33;;;;;;;-0.04;100.00;103527.28;5247781;28;20028;-73
2023/01/25 01:56:01;;;;;;;105.30;54.20;;;;;;;-0.04;100.00;103535.16;5244666;28;20048;-73
2023/01/25 01:58:32;;;;;;;103.75;53.13;;;;;;;0.00;100.00;103533.47;5242097;28;20068;-73
2023/01/25 02:01:04;;;;;;;105.97;55.65;;;;;;;-0.06;100.00;103536.91;5241136;28;20175;-72
2023/01/25 02:03:37;;;;;;;106.07;53.88;;;;;;;-0.04;100.00;103527.28;5244409;28;20116;-72
2023/01/25 02:06:27;;;;;;;105.15;55.05;;;;;;;-0.08;100.00;103522.84;5243913;28;20111;-73
2023/01/25 02:09:00;;;;;;;103.75;52.30;;;;;;;-0.06;100.00;103530.75;5242913;28;20025;-72
2023/01/25 02:11:32;;;;;;;109.68;54.50;;;;;;;0.00;100.00;103525.59;5247698;28;20028;-73
2023/01/25 02:14:05;;;;;;;109.28;55.63;;;;;;;0.12;100.00;103528.31;5242773;28;20025;-72
2023/01/25 02:16:36;;;;;;;106.93;54.47;;;;;;;0.03;100.00;103530.84;5246637;28;20037;-72
2023/01/25 02:19:15;;;;;;;107.53;54.28;;;;;;;-0.05;100.00;103520.28;5245518;28;20037;-73
2023/01/25 02:21:48;;;;;;;108.03;53.88;;;;;;;-0.02;100.00;103522.03;5246037;28;20507;-73
2023/01/25 02:24:31;;;;;;;105.65;54.25;;;;;;;-0.04;100.00;103522.03;5243148;28;20483;-72
2023/01/25 02:27:02;;;;;;;107.10;53.95;;;;;;;-0.10;100.00;103521.94;5243605;28;20120;-72
2023/01/25 02:29:35;;;;;;;106.22;55.20;;;;;;;-0.05;100.00;103515.03;5244505;28;20368;-72
2023/01/25 02:32:06;;;;;;;111.32;55.83;;;;;;;-0.01;100.00;103505.44;5241083;28;20025;-73
2023/01/25 02:34:37;;;;;;;118.88;55.83;;;;;;;-0.17;100.00;103511.38;5241450;28;20095;-72
2023/01/25 02:37:13;;;;;;;115.35;56.45;;;;;;;-0.17;100.00;103503.50;5246545;28;20431;-73
2023/01/25 02:39:44;;;;;;;112.68;55.60;;;;;;;-0.05;100.00;103498.41;5242812;28;20125;-72
2023/01/25 02:42:16;;;;;;;116.72;57.40;;;;;;;-0.11;100.00;103499.22;5251557;28;20108;-73
2023/01/25 02:44:49;;;;;;;119.90;56.00;;;;;;;-0.03;100.00;103501.91;5255079;28;20020;-72
2023/01/25 02:47:21;;;;;;;116.43;54.25;;;;;;;0.05;100.00;103500.25;5246411;28;20486;-73
2023/01/25 02:49:52;;;;;;;122.32;58.55;;;;;;;0.03;100.00;103491.47;5250112;28;20027;-72
2023/01/25 02:52:23;;;;;;;120.40;58.75;;;;;;;0.11;100.00;103496.81;5249557;28;20025;-73
2023/01/25 02:54:55;;;;;;;118.57;58.00;;;;;;;0.07;100.00;103492.41;5244692;28;20552;-73
2023/01/25 02:57:26;;;;;;;114.32;56.35;;;;;;;0.07;100.00;103488.00;5249777;28;20029;-73
2023/01/25 02:59:57;;;;;;;111.25;57.10;;;;;;;-0.04;100.00;103489.66;5255512;28;20029;-72
2023/01/25 03:02:28;;;;;;;114.45;56.17;;;;;;;0.05;100.00;103492.38;5252183;28;20028;-73
2023/01/25 03:05:00;;;;;;;117.03;57.53;;;;;;;0.04;100.00;103492.34;5247872;28;20142;-73
2023/01/25 03:07:31;;;;;;;113.10;55.80;;;;;;;0.06;100.00;103491.53;5253857;28;20245;-72
2023/01/25 03:10:02;;;;;;;116.07;55.90;;;;;;;0.01;100.00;103482.72;5242186;28;20409;-72
2023/01/25 03:12:34;;;;;;;112.85;56.63;;;;;;;0.05;100.00;103491.50;5250831;28;20065;-73
2023/01/25 03:15:06;;;;;;;116.60;56.30;;;;;;;0.03;100.00;103490.59;5243674;28;20064;-72
2023/01/25 03:17:37;;;;;;;118.28;58.75;;;;;;;-0.01;100.00;103480.06;5248489;28;20356;-73
2023/01/25 03:20:09;;;;;;;119.90;58.78;;;;;;;0.01;100.00;103473.97;5245016;28;20036;-72
2023/01/25 03:22:40;;;;;;;124.00;59.60;;;;;;;0.05;100.00;103478.38;5245130;28;20147;-72
2023/01/25 03:25:12;;;;;;;125.50;59.85;;;;;;;0.10;100.00;103477.56;5251259;28;20527;-72
2023/01/25 03:27:43;;;;;;;122.57;59.80;;;;;;;0.06;100.00;103469.63;5250158;28;20410;-72
2023/01/25 03:30:14;;;;;;;119.68;58.10;;;;;;;-0.09;100.00;103473.88;5245616;28;20056;-73
2023/01/25 03:32:46;;;;;;;118.20;56.75;;;;;;;-0.04;100.00;103459.06;5249918;28;20060;-72
2023/01/25 03:35:17;;;;;;;114.78;56.33;;;;;;;-0.09;100.00;103454.63;5246445;28;20028;-72
2023/01/25 03:37:48;;;;;;;119.90;56.55;;;;;;;0.00;100.00;103452.09;5247691;28;20037;-72
2023/01/25 03:40:20;;;;;;;118.50;58.45;;;;;;;-0.11;100.00;103448.50;5248015;28;20029;-73
2023/01/25 03:42:52;;;;;;;118.00;56.83;;;;;;;-0.15;100.00;103451.91;5245778;28;20167;-72
2023/01/25 03:45:23;;;;;;;117.45;56.13;;;;;;;-0.12;100.00;103451.97;5248255;28;20608;-73
2023/01/25 03:47:55;;;;;;;116.10;55.80;;;;;;;-0.09;100.00;103454.63;5249981;28;20112;-73
2023/01/25 03:50:26;;;;;;;115.82;56.10;;;;;;;-0.13;100.00;103447.59;5246032;28;20029;-72
2023/01/25 03:53:08;;;;;;;115.00;53.97;;;;;;;-0.18;100.00;103454.53;5251647;28;20045;-73
2023/01/25 03:55:40;;;;;;;123.13;59.05;;;;;;;-0.13;100.00;103451.09;5246266;28;20541;-72
2023/01/25 03:58:11;;;;;;;114.25;55.60;;;;;;;-0.08;100.00;103449.38;5247351;28;20107;-72
2023/01/25 04:00:42;;;;;;;111.55;54.47;;;;;;;-0.09;100.00;103455.50;5250031;28;20088;-73
2023/01/25 04:03:14;;;;;;;119.85;56.83;;;;;;;-0.05;100.00;103456.41;5252997;28;20036;-73
2023/01/25 04:05:46;;;;;;;107.32;53.65;;;;;;;-0.13;100.00;103460.72;5246901;28;20568;-73
2023/01/25 04:08:18;;;;;;;116.57;56.13;;;;;;;-0.11;100.00;103443.25;5253748;28;20147;-73
2023/01/25 04:10:51;;;;;;;115.97;56.70;;;;;;;-0.04;100.00;103443.31;5250126;28;20041;-73
2023/01/25 04:13:24;;;;;;;119.13;57.25;;;;;;;-0.01;100.00;103445.06;5249992;28;20029;-73
2023/01/25 04:15:56;;;;;;;116.65;56.55;;;;;;;-0.09;100.00;103449.38;5240647;28;20741;-72
2023/01/25 04:18:27;;;;;;;117.18;55.70;;;;;;;-0.04;100.00;103437.16;5250694;28;20033;-72
2023/01/25 04:20:59;;;;;;;121.13;57.05;;;;;;;-0.02;100.00;103445.94;5246513;28;20052;-72
2023/01/25 04:23:30;;;;;;;112.50;55.45;;;;;;;-0.10;100.00;103437.97;5252230;28;20144;-72
2023/01/25 04:26:04;;;;;;;113.75;54.97;;;;;;;-0.07;100.00;103432.78;5250949;28;20025;-72
2023/01/25 04:28:35;;;;;;;115.82;55.42;;;;;;;-0.06;100.00;103431.03;5252865;28;20465;-72
2023/01/25 04:31:07;;;;;;;120.82;55.22;;;;;;;-0.14;100.00;103427.44;5246901;28;20174;-72
2023/01/25 04:33:38;;;;;;;113.75;54.33;;;;;;;-0.20;100.00;103434.38;5251708;28;20375;-72
2023/01/25 04:36:10;;;;;;;112.18;53.63;;;;;;;-0.20;100.00;103428.25;5250320;28;20029;-72
2023/01/25 04:38:41;;;;;;;110.07;53.70;;;;;;;-0.18;100.00;103428.28;5249463;28;20056;-73
2023/01/25 04:41:12;;;;;;;111.28;52.92;;;;;;;-0.22;100.00;103428.25;5246804;28;20042;-72
2023/01/25 04:43:43;;;;;;;116.85;54.97;;;;;;;-0.08;100.00;103431.00;5251029;28;20029;-72
2023/01/25 04:46:15;;;;;;;113.47;54.33;;;;;;;-0.17;100.00;103433.56;5243865;28;20152;-72
2023/01/25 04:48:46;;;;;;;111.18;52.70;;;;;;;-0.13;100.00;103429.22;5250466;28;20032;-72
2023/01/25 04:51:17;;;;;;;111.57;52.83;;;;;;;-0.09;100.00;103431.88;5243550;28;20033;-73
2023/01/25 04:53:49;;;;;;;109.85;52.08;;;;;;;-0.15;100.00;103423.06;5251571;28;20032;-72
2023/01/25 04:56:20;;;;;;;103.75;51.17;;;;;;;-0.29;100.00;103436.94;5246163;28;20029;-73
2023/01/25 04:58:51;;;;;;;109.72;52.88;;;;;;;-0.33;100.00;103435.13;5245382;28;20029;-72
2023/01/25 05:01:23;;;;;;;106.95;52.40;;;;;;;-0.37;100.00;103422.84;5237868;28;20364;-73
2023/01/25 05:03:54;;;;;;;103.15;51.05;;;;;;;-0.39;100.00;103421.94;5266544;28;20052;-72
2023/01/25 05:06:25;;;;;;;104.57;50.60;;;;;;;-0.40;100.00;103407.09;5251529;28;20546;-73
2023/01/25 05:08:56;;;;;;;109.95;53.25;;;;;;;-0.39;100.00;103403.59;5246180;28;20471;-72
2023/01/25 05:11:28;;;;;;;109.03;51.75;;;;;;;-0.45;100.00;103414.88;5241110;28;20035;-72
2023/01/25 05:13:59;;;;;;;110.95;52.28;;;;;;;-0.31;100.00;103407.16;5240653;28;20028;-72
2023/01/25 05:16:30;;;;;;;110.00;52.53;;;;;;;-0.40;100.00;103409.72;5237885;28;20560;-73
2023/01/25 05:19:02;;;;;;;108.97;51.22;;;;;;;-0.30;100.00;103397.56;5246728;28;20508;-72
2023/01/25 05:24:28;;;;;;;113.70;52.10;;;;;;;-0.35;100.00;103404.50;5246462;28;20025;-72
2023/01/25 05:27:04;;;;;;;111.55;53.05;;;;;;;-0.35;100.00;103405.38;5246763;28;20033;-73
2023/01/25 05:29:38;;;;;;;109.65;51.55;;;;;;;-0.37;100.00;103399.22;5244051;28;20033;-73
2023/01/25 05:32:13;;;;;;;101.93;49.10;;;;;;;-0.39;100.00;103398.34;5242606;28;20475;-73
2023/01/25 05:34:45;;;;;;;108.80;51.78;;;;;;;-0.38;100.00;103397.50;5246934;28;20040;-72
2023/01/25 05:37:19;;;;;;;104.93;51.28;;;;;;;-0.44;100.00;103398.31;5245167;28;20395;-72
2023/01/25 05:39:50;;;;;;;106.70;51.53;;;;;;;-0.50;100.00;103393.00;5246844;28;20082;-72
2023/01/25 05:42:21;;;;;;;110.07;53.72;;;;;;;-0.47;100.00;103400.00;5246362;28;20538;-73
2023/01/25 05:44:54;;;;;;;105.80;51.45;;;;;;;-0.50;100.00;103393.00;5243685;28;20436;-73
2023/01/25 05:47:25;;;;;;;109.18;51.28;;;;;;;-0.47;100.00;103397.38;5245527;28;20045;-72
2023/01/25 05:49:56;;;;;;;105.97;50.53;;;;;;;-0.51;100.00;103392.97;5246917;28;20045;-73
2023/01/25 05:52:28;;;;;;;107.72;51.75;;;;;;;-0.52;100.00;103399.06;5240830;28;20033;-73
2023/01/25 05:54:59;;;;;;;113.38;53.65;;;;;;;-0.50;100.00;103392.09;5239373;28;20373;-73
2023/01/25 05:57:30;;;;;;;103.25;50.55;;;;;;;-0.51;100.00;103399.09;5237509;28;20025;-73
2023/01/25 06:00:04;;;;;;;104.05;49.95;;;;;;;-0.51;100.00;103388.59;5237080;28;20079;-73
2023/01/25 06:02:35;;;;;;;104.22;49.58;;;;;;;-0.51;100.00;103392.97;5237741;28;20226;-73
2023/01/25 06:05:07;;;;;;;107.18;50.28;;;;;;;-0.52;100.00;103386.81;5239208;28;20578;-73
2023/01/25 06:07:38;;;;;;;103.10;50.78;;;;;;;-0.46;100.00;103381.66;5245298;28;20055;-72
2023/01/25 06:10:10;;;;;;;108.68;51.13;;;;;;;-0.54;100.00;103395.56;5244390;28;20056;-73
2023/01/25 06:12:41;;;;;;;103.35;50.38;;;;;;;-0.56;100.00;103394.66;5251132;28;20031;-73
2023/01/25 06:15:12;;;;;;;106.18;50.72;;;;;;;-0.61;100.00;103392.00;5255859;28;20121;-73
2023/01/25 06:17:44;;;;;;;104.75;50.92;;;;;;;-0.68;100.00;103390.16;5250980;28;20032;-73
2023/01/25 06:20:15;;;;;;;105.40;50.33;;;;;;;-0.72;100.00;103396.22;5252949;28;20036;-73
2023/01/25 06:22:50;;;;;;;102.25;50.58;;;;;;;-0.77;100.00;103390.03;5253864;28;20053;-73
2023/01/25 06:25:21;;;;;;;108.07;50.70;;;;;;;-0.84;100.00;103391.72;5252922;28;20635;-73
2023/01/25 06:27:54;;;;;;;102.63;49.38;;;;;;;-0.86;100.00;103388.22;5253359;28;20082;-73
2023/01/25 06:30:25;;;;;;;104.75;49.13;;;;;;;-0.76;100.00;103392.69;5255683;28;20025;-73
2023/01/25 06:32:57;;;;;;;114.78;53.17;;;;;;;-0.64;100.00;103391.94;5247167;28;20082;-73
2023/01/25 06:35:31;;;;;;;106.43;50.75;;;;;;;-0.71;100.00;103396.25;5253485;28;20077;-73
2023/01/25 06:38:02;;;;;;;109.32;51.38;;;;;;;-0.57;100.00;103388.53;5255647;28;20543;-73
2023/01/25 06:40:34;;;;;;;103.10;50.10;;;;;;;-0.69;100.00;103391.91;5249006;28;20032;-73
2023/01/25 06:43:10;;;;;;;106.60;50.10;;;;;;;-0.70;100.00;103390.13;5259263;28;20021;-73
2023/01/25 06:45:41;;;;;;;99.93;48.50;;;;;;;-0.70;100.00;103387.50;5259632;28;20082;-73
2023/01/25 06:48:12;;;;;;;106.00;50.55;;;;;;;-0.71;100.00;103391.00;5254182;28;20036;-73
2023/01/25 06:50:43;;;;;;;93.35;46.00;;;;;;;-0.70;100.00;103384.88;5255343;28;20078;-74
2023/01/25 06:53:15;;;;;;;106.32;51.40;;;;;;;-0.70;100.00;103387.50;5254662;28;20020;-73
2023/01/25 06:55:46;;;;;;;95.38;46.55;;;;;;;-0.72;100.00;103386.63;5261849;28;20016;-73
2023/01/25 06:58:17;;;;;;;104.80;49.03;;;;;;;-0.73;100.00;103386.59;5255232;28;20137;-73
2023/01/25 07:00:48;;;;;;;99.63;48.03;;;;;;;-0.77;100.00;103382.19;5254520;28;20791;-73
2023/01/25 07:03:20;;;;;;;98.22;47.83;;;;;;;-0.87;100.00;103382.06;5257995;28;20029;-73
2023/01/25 07:05:59;;;;;;;95.53;45.85;;;;;;;-0.91;100.00;103388.13;5251550;28;20178;-73
2023/01/25 07:08:32;;;;;;;96.38;47.58;;;;;;;-0.78;100.00;103380.44;5248905;28;20029;-73
2023/01/25 07:11:06;;;;;;;91.22;45.97;;;;;;;-0.84;100.00;103368.13;5258271;28;20029;-74
2023/01/25 07:13:38;;;;;;;99.65;47.70;;;;;;;-0.83;100.00;103380.38;5257420;28;20789;-73
2023/01/25 07:16:13;;;;;;;102.97;48.53;;;;;;;-0.70;100.00;103381.41;5253733;28;20078;-74
2023/01/25 07:18:45;;;;;;;94.07;46.45;;;;;;;-0.81;100.00;103379.50;5251700;28;20033;-74
2023/01/25 07:21:21;;;;;;;91.18;45.35;;;;;;;-0.83;100.00;103390.84;5249392;28;20044;-74
2023/01/25 07:23:53;;;;;;;93.93;45.53;;;;;;;-0.87;100.00;103386.44;5246528;28;20028;-74
2023/01/25 07:26:25;;;;;;;92.10;45.78;;;;;;;-0.90;100.00;103387.28;5252005;28;20414;-74
2023/01/25 07:28:58;;;;;;;97.03;46.33;;;;;;;-0.86;100.00;103388.22;5253954;28;20047;-74
2023/01/25 07:31:29;;;;;;;97.00;46.95;;;;;;;-0.86;100.00;103378.59;5250602;28;20051;-74
2023/01/25 07:34:00;;;;;;;94.13;44.17;;;;;;;-0.91;100.00;103379.41;5251377;28;20067;-74
2023/01/25 07:36:32;;;;;;;100.85;47.90;;;;;;;-0.91;100.00;103375.03;5251855;28;20037;-74
2023/01/25 07:39:04;;;;;;;93.95;45.08;;;;;;;-0.88;100.00;103368.94;5250202;28;20107;-74
2023/01/25 07:41:35;;;;;;;91.30;45.83;;;;;;;-0.87;100.00;103378.56;5251501;28;20042;-73
2023/01/25 07:44:06;;;;;;;96.10;47.22;;;;;;;-0.83;100.00;103373.38;5249339;28;20024;-73
2023/01/25 07:46:37;;;;;;;101.22;48.40;;;;;;;-0.79;100.00;103371.66;5254284;28;20033;-74
2023/01/25 07:49:09;;;;;;;96.65;46.50;;;;;;;-0.84;100.00;103365.53;5248494;28;20040;-73
2023/01/25 07:51:40;;;;;;;92.97;45.13;;;;;;;-0.89;100.00;103364.56;5252847;28;20107;-74
2023/01/25 07:54:11;;;;;;;93.72;44.97;;;;;;;-0.91;100.00;103368.91;5246759;28;20041;-74
2023/01/25 07:56:43;;;;;;;97.32;45.13;;;;;;;-0.93;100.00;103368.03;5253010;28;20032;-73
2023/01/25 07:59:15;;;;;;;96.75;46.60;;;;;;;-0.97;100.00;103369.72;5251392;28;20417;-73
2023/01/25 08:01:46;;;;;;;96.38;44.83;;;;;;;-0.94;100.00;103367.16;5249578;28;20455;-73
2023/01/25 08:04:18;;;;;;;101.68;46.97;;;;;;;-0.96;100.00;103360.97;5249860;28;20793;-73
2023/01/25 08:06:49;;;;;;;95.72;45.75;;;;;;;-0.99;100.00;103369.69;5252256;28;20033;-74
2023/01/25 08:09:20;;;;;;;94.78;46.25;;;;;;;-1.00;100.00;103370.56;5250349;28;20044;-74
2023/01/25 08:11:52;;;;;;;97.95;45.92;;;;;;;-1.02;100.00;103356.56;5250083;28;20028;-73
2023/01/25 08:14:23;;;;;;;94.90;45.15;;;;;;;-1.06;100.00;103357.38;5245369;28;20071;-73
2023/01/25 08:16:55;;;;;;;95.38;43.95;;;;;;;-1.11;100.00;103355.56;5250164;28;20043;-73
2023/01/25 08:19:26;;;;;;;94.18;45.10;;;;;;;-1.13;100.00;103358.19;5249836;28;20089;-73
2023/01/25 08:21:57;;;;;;;98.90;47.47;;;;;;;-1.14;100.00;103356.41;5248243;28;20414;-73
2023/01/25 08:24:29;;;;;;;97.97;44.92;;;;;;;-1.14;100.00;103360.78;5245778;28;20028;-73
2023/01/25 08:27:00;;;;;;;99.63;46.30;;;;;;;-1.15;100.00;103364.25;5250721;28;20573;-74
2023/01/25 08:29:31;;;;;;;102.53;47.20;;;;;;;-1.14;100.00;103361.66;5249951;28;20028;-73
2023/01/25 08:32:04;;;;;;;98.93;46.78;;;;;;;-0.96;100.00;103344.38;5251460;28;20032;-73
2023/01/25 08:34:36;;;;;;;102.70;46.67;;;;;;;-0.97;100.00;103353.13;5250434;28;20033;-73
2023/01/25 08:37:07;;;;;;;101.50;47.63;;;;;;;-1.02;100.00;103351.34;5253798;28;20035;-74
2023/01/25 08:39:38;;;;;;;99.88;46.60;;;;;;;-0.96;100.00;103353.13;5250186;28;20032;-73
2023/01/25 08:42:10;;;;;;;100.10;46.25;;;;;;;-0.96;100.00;103344.38;5248418;28;20066;-73
2023/01/25 08:44:41;;;;;;;95.78;45.25;;;;;;;-0.99;100.00;103346.13;5247898;28;20079;-73
2023/01/25 08:47:12;;;;;;;98.07;46.55;;;;;;;-0.97;100.00;103345.28;5250966;28;20052;-73
2023/01/25 08:49:43;;;;;;;96.40;45.95;;;;;;;-0.99;100.00;103353.09;5248336;28;20159;-73
2023/01/25 08:52:15;;;;;;;95.22;45.08;;;;;;;-0.97;100.00;103361.00;5252537;28;20024;-73
2023/01/25 08:54:47;;;;;;;101.22;46.97;;;;;;;-0.98;100.00;103346.97;5248130;28;20056;-73
2023/01/25 08:57:18;;;;;;;98.35;46.05;;;;;;;-0.96;100.00;103353.13;5251075;28;20024;-73
2023/01/25 08:59:49;;;;;;;95.68;45.22;;;;;;;-0.89;100.00;103349.72;5247352;28;20058;-73
2023/01/25 09:02:20;;;;;;;96.65;46.38;;;;;;;-0.87;100.00;103349.75;5247048;28;20017;-73
2023/01/25 09:04:52;;;;;;;101.05;46.95;;;;;;;-0.87;100.00;103342.75;5247923;28;20017;-73
2023/01/25 09:07:23;;;;;;;103.45;46.38;;;;;;;-0.80;100.00;103328.00;5253013;28;20411;-73
2023/01/25 09:09:54;;;;;;;101.05;47.13;;;;;;;-0.85;100.00;103333.16;5249488;28;20374;-73
2023/01/25 09:12:25;;;;;;;100.95;46.80;;;;;;;-0.88;100.00;103330.53;5250029;28;20036;-73
2023/01/25 09:14:57;;;;;;;108.40;48.45;;;;;;;-0.73;100.00;103327.22;5249753;28;20044;-73
2023/01/25 09:17:28;;;;;;;99.55;46.72;;;;;;;-0.71;100.00;103333.34;5251261;28;20025;-73
2023/01/25 09:20:00;;;;;;;100.43;46.13;;;;;;;-0.72;100.00;103334.19;5248154;28;20028;-73
2023/01/25 09:22:31;;;;;;;101.60;47.22;;;;;;;-0.77;100.00;103322.75;5251767;28;20045;-73
2023/01/25 09:25:02;;;;;;;96.88;45.17;;;;;;;-0.62;100.00;103315.06;5248915;28;20102;-73
2023/01/25 09:27:34;;;;;;;98.13;47.15;;;;;;;-0.62;100.00;103322.06;5251002;28;20024;-73
2023/01/25 09:30:07;;;;;;;100.63;47.22;;;;;;;-0.66;100.00;103318.50;5250315;28;20047;-73
2023/01/25 09:32:39;;;;;;;98.57;45.08;;;;;;;-0.66;100.00;103325.50;5251400;28;20033;-73
2023/01/25 09:35:10;;;;;;;105.95;47.83;;;;;;;-0.77;100.00;103322.75;5249994;28;20114;-73
2023/01/25 09:37:41;;;;;;;102.88;47.63;;;;;;;-0.81;100.00;103328.84;5250571;28;20276;-73
2023/01/25 09:40:27;;;;;;;103.47;47.75;;;;;;;-0.86;100.00;103313.06;5251326;28;20035;-73
2023/01/25 09:43:10;;;;;;;108.95;49.58;;;;;;;-0.71;100.00;103321.94;5252812;28;20068;-73
2023/01/25 09:45:42;;;;;;;104.40;48.10;;;;;;;-0.76;100.00;103323.66;5247485;28;20112;-73
2023/01/25 09:48:41;;;;;;;105.55;49.28;;;;;;;-0.73;100.00;103319.34;5248165;28;20024;-73
2023/01/25 09:51:55;;;;;;;107.63;49.20;;;;;;;-0.71;100.00;103314.09;5250184;28;20051;-73
2023/01/25 09:54:28;;;;;;;105.55;47.20;;;;;;;-0.60;100.00;103312.47;5250940;28;20021;-73
2023/01/25 09:57:00;;;;;;;101.22;47.92;;;;;;;-0.68;100.00;103320.25;5251810;28;20116;-73
2023/01/25 09:59:32;;;;;;;108.70;50.53;;;;;;;-0.60;100.00;103312.47;5250692;28;20056;-73
2023/01/25 10:02:30;;;;;;;110.18;48.92;;;;;;;-0.56;100.00;103313.38;5249239;28;20025;-73
2023/01/25 10:05:12;;;;;;;106.10;46.92;;;;;;;-0.50;100.00;103316.03;5250447;28;20036;-73
2023/01/25 10:08:05;;;;;;;106.97;48.72;;;;;;;-0.61;100.00;103324.69;5249870;28;20364;-73
2023/01/25 10:10:40;;;;;;;106.88;49.88;;;;;;;-0.71;100.00;103315.00;5251570;28;20075;-73
2023/01/25 10:13:12;;;;;;;;;;;;;;;-0.69;100.00;103315.88;5251057;28;20121;-74
2023/01/25 10:15:50;;;;;;;113.10;49.50;;;;;;;-0.78;100.00;103304.44;5248557;28;19924;-73
2023/01/25 10:18:29;;;;;;;113.55;50.03;;;;;;;-0.83;100.00;103301.75;5251971;28;20027;-73
2023/01/25 10:21:09;;;;;;;115.50;50.50;;;;;;;-0.88;100.00;103295.56;5249388;28;20418;-73
2023/01/25 10:23:47;;;;;;;110.90;50.15;;;;;;;-0.82;100.00;103300.88;5251483;28;20547;-73
2023/01/25 10:26:32;;;;;;;121.25;52.13;;;;;;;-0.86;100.00;103299.09;5248995;28;20060;-73
2023/01/25 10:29:18;;;;;;;111.95;49.08;;;;;;;-0.92;100.00;103294.69;5252622;28;20107;-73
2023/01/25 10:31:54;;;;;;;110.05;48.47;;;;;;;-0.95;100.00;103293.75;5249016;28;20124;-73
2023/01/25 10:34:33;;;;;;;114.65;50.25;;;;;;;-0.88;100.00;103290.31;5251671;28;20037;-73
2023/01/25 10:37:18;;;;;;;117.05;51.03;;;;;;;-0.93;100.00;103286.78;5241732;28;20470;-73
2023/01/25 10:40:11;;;;;;;118.03;52.60;;;;;;;-0.96;100.00;103279.75;5242576;28;20040;-73
2023/01/25 10:42:49;;;;;;;115.25;50.00;;;;;;;-0.96;100.00;103279.75;5248145;28;20106;-73
2023/01/25 10:45:21;;;;;;;111.72;49.30;;;;;;;-0.96;100.00;103266.66;5249964;28;20033;-73
2023/01/25 10:48:01;;;;;;;117.68;51.30;;;;;;;-0.95;100.00;103257.94;5249499;28;20127;-73
2023/01/25 10:50:42;;;;;;;103.40;46.88;;;;;;;-0.93;100.00;103253.59;5248533;28;20135;-73
2023/01/25 10:53:33;;;;;;;102.55;47.08;;;;;;;-0.91;100.00;103245.75;5246673;28;20084;-74
2023/01/25 10:56:10;;;;;;;106.93;48.08;;;;;;;-0.89;100.00;103238.78;5243871;28;20671;-73
2023/01/25 10:58:47;;;;;;;105.88;47.67;;;;;;;-0.84;100.00;103252.81;5247958;28;20576;-73
2023/01/25 11:01:32;;;;;;;104.40;46.47;;;;;;;-0.83;100.00;103233.59;5249224;28;20033;-74
2023/01/25 11:04:34;;;;;;;106.40;48.95;;;;;;;-0.77;100.00;103231.03;5255416;28;20453;-74
2023/01/25 11:07:25;;;;;;;112.07;49.35;;;;;;;-0.72;100.00;103224.09;5250603;28;20047;-73
2023/01/25 11:09:57;;;;;;;103.55;48.20;;;;;;;-0.70;100.00;103214.50;5253886;28;20428;-73
2023/01/25 11:12:28;;;;;;;106.38;47.13;;;;;;;-0.63;100.00;103205.81;5252097;28;20025;-73
2023/01/25 11:15:23;;;;;;;105.25;48.28;;;;;;;-0.56;100.00;103201.50;5253104;28;20387;-74
2023/01/25 11:18:12;;;;;;;;;;;;;;;-0.53;100.00;103206.78;5252159;28;20021;-73
2023/01/25 11:20:43;;;;;;;104.55;45.53;;;;;;;-0.56;100.00;103200.63;5250332;28;20255;-73
2023/01/25 11:23:25;;;;;;;105.68;47.15;;;;;;;-0.48;100.00;103197.22;5251850;28;20029;-73
2023/01/25 11:26:17;;;;;;;101.65;46.15;;;;;;;-0.46;100.00;103189.31;5254072;28;20025;-73
2023/01/25 11:28:48;;;;;;;104.22;47.28;;;;;;;-0.51;100.00;103191.06;5249858;28;20045;-73
2023/01/25 11:31:21;;;;;;;104.82;46.72;;;;;;;-0.51;100.00;103173.56;5250042;28;20055;-73